createdAt,value
2023-05-16T00:00:35.126Z,97771.77
2023-05-16T00:02:03.405Z,97771.77
2023-05-16T00:03:37.487Z,97775.01
2023-05-16T00:04:59.901Z,97772.83
2023-05-16T00:06:29.083Z,97774.93
2023-05-16T00:07:58.017Z,97771.30
2023-05-16T00:09:19.501Z,97772.92
2023-05-16T00:10:46.033Z,97759.70
2023-05-16T00:12:08.060Z,97770.61
2023-05-16T00:13:42.444Z,97761.49
2023-05-16T00:15:14.393Z,97772.16
2023-05-16T00:16:38.377Z,97771.10
2023-05-16T00:18:15.623Z,97774.11
2023-05-16T00:19:37.486Z,97779.67
2023-05-16T00:21:11.360Z,97782.15
2023-05-16T00:22:44.634Z,97777.79
2023-05-16T00:24:17.950Z,97785.02
2023-05-16T00:25:47.288Z,97784.80
2023-05-16T00:27:09.288Z,97783.89
2023-05-16T00:28:30.680Z,97785.33
2023-05-16T00:29:52.639Z,97788.16
2023-05-16T00:31:14.719Z,97783.66
2023-05-16T00:32:38.514Z,97783.14
2023-05-16T00:34:01.546Z,97771.05
2023-05-16T00:35:25.578Z,97781.09
2023-05-16T00:36:54.296Z,97784.38
2023-05-16T00:38:16.692Z,97782.77
2023-05-16T00:39:40.417Z,97785.41
2023-05-16T00:41:02.225Z,97784.92
2023-05-16T00:42:46.841Z,97785.80
2023-05-16T00:44:21.576Z,97784.52
2023-05-16T00:45:53.053Z,97785.52
2023-05-16T00:47:26.744Z,97788.45
2023-05-16T00:49:00.697Z,97786.86
2023-05-16T00:50:24.644Z,97790.54
2023-05-16T00:51:46.849Z,97789.89
2023-05-16T00:53:11.085Z,97794.34
2023-05-16T00:54:33.278Z,97795.64
2023-05-16T00:55:54.866Z,97800.36
2023-05-16T00:57:17.013Z,97800.42
2023-05-16T00:58:38.852Z,97796.98
2023-05-16T01:00:00.747Z,97796.14
2023-05-16T01:01:22.535Z,97795.18
2023-05-16T01:02:51.679Z,97793.78
2023-05-16T01:04:15.898Z,97793.20
2023-05-16T01:05:37.441Z,97793.11
2023-05-16T01:06:59.186Z,97793.52
2023-05-16T01:08:21.726Z,97793.98
2023-05-16T01:09:51.096Z,97801.66
2023-05-16T01:11:13.295Z,97796.35
2023-05-16T01:12:34.882Z,97795.81
2023-05-16T01:13:56.904Z,97797.74
2023-05-16T01:15:18.588Z,97796.15
2023-05-16T01:16:40.271Z,97801.04
2023-05-16T01:18:02.409Z,97803.37
2023-05-16T01:19:26.530Z,97797.65
2023-05-16T01:20:55.898Z,97796.50
2023-05-16T01:22:21.638Z,97794.70
2023-05-16T01:23:43.551Z,97797.19
2023-05-16T01:25:26.351Z,97796.04
2023-05-16T01:26:48.034Z,97798.19
2023-05-16T01:28:23.648Z,97796.48
2023-05-16T01:29:48.030Z,97796.80
2023-05-16T01:31:33.221Z,97794.75
2023-05-16T01:32:59.603Z,97793.09
2023-05-16T01:34:35.322Z,97795.98
2023-05-16T01:35:57.353Z,97795.07
2023-05-16T01:37:30.653Z,97797.89
2023-05-16T01:39:01.848Z,97802.35
2023-05-16T01:40:40.656Z,97805.02
2023-05-16T01:42:23.252Z,97783.84
2023-05-16T01:43:59.100Z,97804.52
2023-05-16T01:45:44.396Z,97805.56
2023-05-16T01:47:18.308Z,97800.70
2023-05-16T01:48:52.351Z,97803.85
2023-05-16T01:50:16.418Z,97802.39
2023-05-16T01:51:51.610Z,97798.93
2023-05-16T01:53:13.390Z,97803.51
2023-05-16T01:54:51.663Z,97804.14
2023-05-16T01:56:13.973Z,97804.05
2023-05-16T01:57:49.353Z,97803.27
2023-05-16T01:59:13.796Z,97797.80
2023-05-16T02:00:37.701Z,97806.55
2023-05-16T02:02:22.947Z,97797.26
2023-05-16T02:03:49.313Z,97805.86
2023-05-16T02:05:34.263Z,97806.06
2023-05-16T02:07:16.788Z,97809.95
2023-05-16T02:08:39.931Z,97806.88
2023-05-16T02:10:19.729Z,97805.71
2023-05-16T02:11:51.453Z,97804.14
2023-05-16T02:13:36.770Z,97805.02
2023-05-16T02:15:10.408Z,97802.71
2023-05-16T02:16:45.584Z,97800.43
2023-05-16T02:18:26.175Z,97801.22
2023-05-16T02:20:15.599Z,97800.83
2023-05-16T02:22:00.286Z,97805.23
2023-05-16T02:23:31.422Z,97803.44
2023-05-16T02:24:54.836Z,97804.12
2023-05-16T02:26:16.344Z,97810.95
2023-05-16T02:27:52.450Z,97806.59
2023-05-16T02:29:33.440Z,97810.08
2023-05-16T02:31:18.394Z,97808.50
2023-05-16T02:32:52.063Z,97810.45
2023-05-16T02:34:34.180Z,97802.10
2023-05-16T02:36:06.158Z,97804.17
2023-05-16T02:37:41.429Z,97818.75
2023-05-16T02:39:04.204Z,97816.73
2023-05-16T02:40:30.720Z,97819.83
2023-05-16T02:42:08.471Z,97814.90
2023-05-16T02:43:53.741Z,97813.77
2023-05-16T02:45:22.618Z,97811.16
2023-05-16T02:46:46.508Z,97814.46
2023-05-16T02:48:22.458Z,97810.63
2023-05-16T02:50:01.912Z,97813.69
2023-05-16T02:51:23.712Z,97809.33
2023-05-16T02:52:49.870Z,97813.63
2023-05-16T02:54:25.737Z,97810.52
2023-05-16T02:55:51.913Z,97818.05
2023-05-16T02:57:25.435Z,97807.26
2023-05-16T02:58:49.207Z,97821.91
2023-05-16T03:00:18.914Z,97814.98
2023-05-16T03:01:54.873Z,97818.64
2023-05-16T03:03:36.186Z,97816.88
2023-05-16T03:05:17.977Z,97820.14
2023-05-16T03:06:47.519Z,97816.46
2023-05-16T03:08:23.047Z,97820.02
2023-05-16T03:09:47.346Z,97816.70
2023-05-16T03:11:40.648Z,97821.05
2023-05-16T03:13:14.444Z,97820.41
2023-05-16T03:14:39.120Z,97820.59
2023-05-16T03:16:03.113Z,97814.26
2023-05-16T03:17:38.801Z,97817.45
2023-05-16T03:19:24.056Z,97818.69
2023-05-16T03:20:59.851Z,97816.50
2023-05-16T03:22:45.269Z,97820.60
2023-05-16T03:24:30.450Z,97819.65
2023-05-16T03:26:17.467Z,97820.21
2023-05-16T03:27:51.372Z,97823.23
2023-05-16T03:29:26.506Z,97822.75
2023-05-16T03:30:50.836Z,97825.27
2023-05-16T03:32:36.112Z,97823.89
2023-05-16T03:34:09.904Z,97826.23
2023-05-16T03:35:43.551Z,97832.34
2023-05-16T03:37:18.930Z,97831.80
2023-05-16T03:38:43.167Z,97832.66
2023-05-16T03:40:18.238Z,97838.38
2023-05-16T03:42:03.653Z,97836.06
2023-05-16T03:43:40.379Z,97844.46
2023-05-16T03:45:07.666Z,97845.27
2023-05-16T03:46:52.794Z,97852.97
2023-05-16T03:48:26.547Z,97851.49
2023-05-16T03:50:00.004Z,97848.16
2023-05-16T03:51:45.835Z,97850.98
2023-05-16T03:53:22.098Z,97853.90
2023-05-16T03:54:51.835Z,97853.43
2023-05-16T03:56:27.553Z,97859.70
2023-05-16T03:57:57.052Z,97841.09
2023-05-16T03:59:32.711Z,97865.15
2023-05-16T04:01:04.129Z,97868.66
2023-05-16T04:02:37.733Z,97864.50
2023-05-16T04:04:02.131Z,97870.10
2023-05-16T04:05:34.165Z,97872.07
2023-05-16T04:07:27.968Z,97871.27
2023-05-16T04:09:00.024Z,97875.09
2023-05-16T04:10:33.436Z,97875.75
2023-05-16T04:12:06.181Z,97877.61
2023-05-16T04:13:39.677Z,97880.10
2023-05-16T04:15:25.206Z,97877.77
2023-05-16T04:17:11.045Z,97881.25
2023-05-16T04:18:52.078Z,97884.43
2023-05-16T04:20:45.369Z,97880.63
2023-05-16T04:22:26.054Z,97889.48
2023-05-16T04:24:02.426Z,97894.54
2023-05-16T04:25:42.959Z,97896.15
2023-05-16T04:27:09.424Z,97900.35
2023-05-16T04:28:35.724Z,97907.93
2023-05-16T04:30:08.828Z,97911.66
2023-05-16T04:31:40.482Z,97910.16
2023-05-16T04:33:25.673Z,97917.77
2023-05-16T04:34:59.999Z,97921.49
2023-05-16T04:36:29.881Z,97921.30
2023-05-16T04:38:05.803Z,97923.54
2023-05-16T04:39:39.187Z,97924.80
2023-05-16T04:41:03.850Z,97927.73
2023-05-16T04:42:30.174Z,97914.31
2023-05-16T04:44:06.381Z,97907.84
2023-05-16T04:45:30.761Z,97903.77
2023-05-16T04:46:53.413Z,97901.36
2023-05-16T04:48:20.082Z,97907.16
2023-05-16T04:49:53.817Z,97901.32
2023-05-16T04:51:27.293Z,97903.70
2023-05-16T04:53:00.828Z,97914.38
2023-05-16T04:54:34.585Z,97920.30
2023-05-16T04:56:11.878Z,97920.39
2023-05-16T04:57:47.616Z,97923.30
2023-05-16T04:59:22.758Z,97913.61
2023-05-16T05:01:04.114Z,97914.46
2023-05-16T05:02:37.836Z,97911.11
2023-05-16T05:04:01.808Z,97909.02
2023-05-16T05:05:23.731Z,97910.08
2023-05-16T05:06:55.259Z,97915.88
2023-05-16T05:08:19.597Z,97922.81
2023-05-16T05:09:54.463Z,97929.70
2023-05-16T05:11:30.492Z,97926.19
2023-05-16T05:13:04.024Z,97934.51
2023-05-16T05:14:37.654Z,97927.70
2023-05-16T05:15:59.419Z,97927.21
2023-05-16T05:17:23.719Z,97929.30
2023-05-16T05:19:08.809Z,97935.42
2023-05-16T05:20:42.109Z,97935.41
2023-05-16T05:22:08.633Z,97932.80
2023-05-16T05:23:33.126Z,97930.19
2023-05-16T05:25:18.491Z,97927.37
2023-05-16T05:26:44.499Z,97935.33
2023-05-16T05:28:13.859Z,97938.94
2023-05-16T05:29:49.895Z,97949.59
2023-05-16T05:31:11.973Z,97952.85
2023-05-16T05:32:53.356Z,97950.27
2023-05-16T05:34:25.203Z,97954.34
2023-05-16T05:35:56.357Z,97960.66
2023-05-16T05:37:41.685Z,97971.77
2023-05-16T05:39:26.338Z,97973.83
2023-05-16T05:40:49.578Z,97977.27
2023-05-16T05:42:12.138Z,97981.95
2023-05-16T05:43:46.184Z,97985.69
2023-05-16T05:45:22.068Z,97988.42
2023-05-16T05:46:57.737Z,97996.94
2023-05-16T05:48:41.251Z,98012.74
2023-05-16T05:50:14.627Z,98008.52
2023-05-16T05:51:55.468Z,98005.23
2023-05-16T05:53:40.961Z,98008.84
2023-05-16T05:55:02.918Z,98017.15
2023-05-16T05:56:38.676Z,98016.13
2023-05-16T05:58:04.382Z,98018.09
2023-05-16T05:59:39.388Z,98020.39
2023-05-16T06:01:24.591Z,98016.55
2023-05-16T06:03:13.080Z,98017.10
2023-05-16T06:04:42.699Z,98023.05
2023-05-16T06:06:20.431Z,98022.08
2023-05-16T06:07:42.423Z,98020.89
2023-05-16T06:09:27.789Z,98029.95
2023-05-16T06:10:54.189Z,98025.77
2023-05-16T06:12:27.989Z,98022.80
2023-05-16T06:13:52.265Z,98026.64
2023-05-16T06:15:38.647Z,98028.42
2023-05-16T06:17:03.596Z,98029.50
2023-05-16T06:18:32.635Z,98031.20
2023-05-16T06:20:06.546Z,98032.63
2023-05-16T06:21:31.104Z,98034.25
2023-05-16T06:23:04.578Z,98040.60
2023-05-16T06:24:38.166Z,98034.00
2023-05-16T06:26:23.412Z,98042.87
2023-05-16T06:27:57.394Z,98047.64
2023-05-16T06:29:31.155Z,98045.60
2023-05-16T06:31:00.680Z,98049.33
2023-05-16T06:32:45.586Z,98048.60
2023-05-16T06:34:30.982Z,98052.92
2023-05-16T06:36:12.163Z,98061.36
2023-05-16T06:37:34.275Z,98069.27
2023-05-16T06:38:56.370Z,98070.70
2023-05-16T06:40:31.948Z,98072.21
2023-05-16T06:42:08.280Z,98072.94
2023-05-16T06:43:53.455Z,98076.88
2023-05-16T06:45:38.975Z,98078.52
2023-05-16T06:47:00.570Z,98086.14
2023-05-16T06:48:30.415Z,98091.19
2023-05-16T06:50:03.818Z,98091.52
2023-05-16T06:51:28.891Z,98090.48
2023-05-16T06:53:14.189Z,98093.67
2023-05-16T06:54:36.246Z,98093.25
2023-05-16T06:56:10.026Z,98099.33
2023-05-16T06:57:32.003Z,98099.44
2023-05-16T06:59:06.032Z,98102.67
2023-05-16T07:00:34.987Z,98105.48
2023-05-16T07:01:56.888Z,98105.48
2023-05-16T07:03:26.236Z,98109.42
2023-05-16T07:04:50.585Z,98109.79
2023-05-16T07:06:26.294Z,98107.06
2023-05-16T07:08:08.038Z,98101.85
2023-05-16T07:09:39.720Z,98111.74
2023-05-16T07:11:13.343Z,98111.07
2023-05-16T07:12:51.479Z,98100.67
2023-05-16T07:14:15.267Z,98118.16
2023-05-16T07:15:37.218Z,98120.83
2023-05-16T07:17:01.422Z,98124.13
2023-05-16T07:18:35.399Z,98127.02
2023-05-16T07:20:17.807Z,98129.06
2023-05-16T07:21:47.574Z,98133.82
2023-05-16T07:23:09.362Z,98137.91
2023-05-16T07:24:38.787Z,98132.72
2023-05-16T07:26:03.124Z,98125.45
2023-05-16T07:27:36.658Z,98139.05
2023-05-16T07:29:24.494Z,98136.81
2023-05-16T07:31:00.383Z,98138.86
2023-05-16T07:32:31.681Z,98141.33
2023-05-16T07:34:05.650Z,98145.26
2023-05-16T07:35:39.227Z,98143.95
2023-05-16T07:37:13.080Z,98143.38
2023-05-16T07:38:39.416Z,98143.97
2023-05-16T07:40:15.440Z,98149.02
2023-05-16T07:41:46.966Z,98147.86
2023-05-16T07:43:34.179Z,98143.91
2023-05-16T07:44:57.131Z,98138.73
2023-05-16T07:46:21.351Z,98145.89
2023-05-16T07:47:50.516Z,98147.30
2023-05-16T07:49:12.141Z,98151.50
2023-05-16T07:50:46.004Z,98152.98
2023-05-16T07:52:10.488Z,98149.84
2023-05-16T07:53:32.692Z,98148.14
2023-05-16T07:54:58.996Z,98144.80
2023-05-16T07:56:23.734Z,98142.83
2023-05-16T07:57:56.962Z,98145.42
2023-05-16T07:59:42.406Z,98145.39
2023-05-16T08:01:16.976Z,98146.48
2023-05-16T08:02:50.639Z,98147.36
2023-05-16T08:04:24.038Z,98148.52
2023-05-16T08:05:53.499Z,98147.13
2023-05-16T08:07:20.541Z,98150.52
2023-05-16T08:08:42.106Z,98145.86
2023-05-16T08:10:13.882Z,98144.23
2023-05-16T08:11:36.357Z,98144.02
2023-05-16T08:13:09.747Z,98145.54
2023-05-16T08:14:32.556Z,98138.71
2023-05-16T08:16:08.460Z,98138.75
2023-05-16T08:17:41.687Z,98135.67
2023-05-16T08:19:31.029Z,98135.88
2023-05-16T08:21:17.006Z,98149.74
2023-05-16T08:22:52.880Z,98149.70
2023-05-16T08:24:29.085Z,98154.63
2023-05-16T08:26:00.383Z,98150.55
2023-05-16T08:27:45.779Z,98158.27
2023-05-16T08:29:19.540Z,98155.34
2023-05-16T08:31:00.277Z,98149.73
2023-05-16T08:32:34.099Z,98154.40
2023-05-16T08:34:13.130Z,98156.49
2023-05-16T08:35:35.689Z,98158.55
2023-05-16T08:37:06.991Z,98166.36
2023-05-16T08:38:36.254Z,98159.73
2023-05-16T08:40:03.922Z,98162.38
2023-05-16T08:41:40.625Z,98160.41
2023-05-16T08:43:05.206Z,98156.66
2023-05-16T08:44:29.677Z,98146.10
2023-05-16T08:46:05.052Z,98154.29
2023-05-16T08:47:50.172Z,98152.29
2023-05-16T08:49:12.353Z,98152.25
2023-05-16T08:50:45.940Z,98156.76
2023-05-16T08:52:31.194Z,98153.08
2023-05-16T08:53:52.825Z,98155.39
2023-05-16T08:55:29.532Z,98156.49
2023-05-16T08:57:14.335Z,98161.83
2023-05-16T08:58:59.725Z,98157.45
2023-05-16T09:00:23.804Z,98160.72
2023-05-16T09:02:00.692Z,98164.59
2023-05-16T09:03:29.976Z,98163.79
2023-05-16T09:05:03.711Z,98166.27
2023-05-16T09:06:40.376Z,98162.48
2023-05-16T09:10:07.249Z,98173.75
2023-05-16T09:11:47.613Z,98178.33
2023-05-16T09:13:20.971Z,98189.70
2023-05-16T09:14:45.253Z,98183.94
2023-05-16T09:16:07.244Z,98187.91
2023-05-16T09:17:44.317Z,98185.17
2023-05-16T09:19:34.425Z,98182.16
2023-05-16T09:21:01.540Z,98184.00
2023-05-16T09:22:23.183Z,98186.56
2023-05-16T09:24:08.596Z,98185.40
2023-05-16T09:25:43.376Z,98188.56
2023-05-16T09:27:09.337Z,98195.66
2023-05-16T09:28:31.886Z,98194.02
2023-05-16T09:29:58.431Z,98188.54
2023-05-16T09:31:33.034Z,98208.89
2023-05-16T09:32:57.455Z,98210.66
2023-05-16T09:34:21.247Z,98213.88
2023-05-16T09:35:45.419Z,98216.58
2023-05-16T09:37:07.305Z,98227.13
2023-05-16T09:38:41.065Z,98228.73
2023-05-16T09:40:03.224Z,98231.36
2023-05-16T09:41:25.417Z,98239.90
2023-05-16T09:42:54.447Z,98244.09
2023-05-16T09:44:16.693Z,98241.36
2023-05-16T09:46:01.828Z,98248.70
2023-05-16T09:47:35.616Z,98245.81
2023-05-16T09:48:57.281Z,98245.99
2023-05-16T09:50:30.833Z,98246.29
2023-05-16T09:52:04.376Z,98250.50
2023-05-16T09:53:27.601Z,98250.45
2023-05-16T09:54:57.101Z,98238.98
2023-05-16T09:56:19.201Z,98251.84
2023-05-16T09:57:41.054Z,98253.55
2023-05-16T09:59:03.345Z,98260.86
2023-05-16T10:00:27.720Z,98259.80
2023-05-16T10:01:49.843Z,98268.48
2023-05-16T10:03:12.086Z,98269.68
2023-05-16T10:04:41.595Z,98270.71
2023-05-16T10:06:07.688Z,98274.94
2023-05-16T10:07:29.540Z,98272.19
2023-05-16T10:08:53.837Z,98276.34
2023-05-16T10:10:22.936Z,98277.88
2023-05-16T10:12:07.869Z,98281.36
2023-05-16T10:13:41.483Z,98281.36
2023-05-16T10:15:05.926Z,98282.31
2023-05-16T10:16:29.994Z,98282.05
2023-05-16T10:17:53.880Z,98281.95
2023-05-16T10:19:17.749Z,98283.23
2023-05-16T10:20:40.041Z,98280.54
2023-05-16T10:22:04.261Z,98273.10
2023-05-16T10:23:26.305Z,98277.71
2023-05-16T10:24:50.652Z,98275.75
2023-05-16T10:26:14.545Z,98269.31
2023-05-16T10:27:47.376Z,98273.51
2023-05-16T10:29:16.461Z,98270.33
2023-05-16T10:30:40.487Z,98270.99
2023-05-16T10:32:02.798Z,98281.27
2023-05-16T10:33:27.957Z,98281.74
2023-05-16T10:35:01.226Z,98285.51
2023-05-16T10:36:23.270Z,98289.40
2023-05-16T10:37:45.070Z,98285.25
2023-05-16T10:39:18.436Z,98282.26
2023-05-16T10:40:47.996Z,98290.84
2023-05-16T10:42:18.390Z,98293.19
2023-05-16T10:43:50.028Z,98290.65
2023-05-16T10:45:11.720Z,98292.27
2023-05-16T10:46:47.357Z,98290.34
2023-05-16T10:48:11.547Z,98292.46
2023-05-16T10:49:35.854Z,98286.77
2023-05-16T10:50:57.535Z,98298.45
2023-05-16T10:52:22.066Z,98298.46
2023-05-16T10:53:46.155Z,98298.14
2023-05-16T10:55:07.840Z,98298.59
2023-05-16T10:56:29.899Z,98300.74
2023-05-16T10:57:51.552Z,98302.22
2023-05-16T10:59:13.999Z,98301.96
2023-05-16T11:00:35.734Z,98306.93
2023-05-16T11:01:57.800Z,98300.03
2023-05-16T11:03:31.728Z,98302.30
2023-05-16T11:04:55.741Z,98300.92
2023-05-16T11:06:18.310Z,98301.56
2023-05-16T11:07:42.455Z,98298.85
2023-05-16T11:09:10.422Z,98301.23
2023-05-16T11:10:44.500Z,98296.11
2023-05-16T11:12:06.441Z,98297.78
2023-05-16T11:13:57.117Z,98304.15
2023-05-16T11:15:19.475Z,98303.46
2023-05-16T11:16:44.237Z,98304.98
2023-05-16T11:18:06.652Z,98306.23
2023-05-16T11:19:28.067Z,98308.89
2023-05-16T11:20:59.572Z,98310.02
2023-05-16T11:22:24.235Z,98307.13
2023-05-16T11:23:48.932Z,98304.11
2023-05-16T11:25:10.920Z,98300.84
2023-05-16T11:26:35.136Z,98299.67
2023-05-16T11:27:56.650Z,98303.48
2023-05-16T11:29:18.479Z,98304.98
2023-05-16T11:30:40.612Z,98308.73
2023-05-16T11:32:06.552Z,98304.86
2023-05-16T11:33:36.583Z,98303.58
2023-05-16T11:35:00.239Z,98299.52
2023-05-16T11:36:25.551Z,98297.67
2023-05-16T11:37:47.306Z,98299.15
2023-05-16T11:39:12.577Z,98297.99
2023-05-16T11:40:34.949Z,98298.48
2023-05-16T11:41:58.741Z,98302.24
2023-05-16T11:43:27.942Z,98298.85
2023-05-16T11:44:57.980Z,98292.95
2023-05-16T11:46:19.833Z,98299.34
2023-05-16T11:47:41.734Z,98299.87
2023-05-16T11:49:03.207Z,98297.62
2023-05-16T11:50:25.020Z,98297.20
2023-05-16T11:51:58.269Z,98303.91
2023-05-16T11:53:22.595Z,98301.33
2023-05-16T11:54:44.582Z,98303.42
2023-05-16T11:56:08.953Z,98307.30
2023-05-16T11:57:32.840Z,98310.60
2023-05-16T11:58:54.313Z,98311.27
2023-05-16T12:00:16.628Z,98312.71
2023-05-16T12:01:43.394Z,98315.35
2023-05-16T12:03:05.923Z,98316.50
2023-05-16T12:04:28.519Z,98313.79
2023-05-16T12:06:09.692Z,98318.77
2023-05-16T12:07:40.936Z,98319.86
2023-05-16T12:09:09.932Z,98325.06
2023-05-16T12:10:34.805Z,98320.42
2023-05-16T12:11:59.156Z,98321.55
2023-05-16T12:13:30.248Z,98321.83
2023-05-16T12:14:54.466Z,98324.45
2023-05-16T12:16:16.568Z,98324.11
2023-05-16T12:17:52.205Z,98321.53
2023-05-16T12:19:26.093Z,98326.02
2023-05-16T12:20:49.947Z,98323.30
2023-05-16T12:22:14.560Z,98321.79
2023-05-16T12:23:48.328Z,98318.33
2023-05-16T12:25:21.583Z,98317.26
2023-05-16T12:26:45.758Z,98317.78
2023-05-16T12:28:21.647Z,98321.53
2023-05-16T12:29:57.209Z,98318.25
2023-05-16T12:31:31.025Z,98319.99
2023-05-16T12:32:56.543Z,98317.78
2023-05-16T12:34:33.303Z,98319.02
2023-05-16T12:35:55.282Z,98325.52
2023-05-16T12:37:16.928Z,98325.09
2023-05-16T12:38:53.046Z,98328.48
2023-05-16T12:40:17.135Z,98330.45
2023-05-16T12:41:50.940Z,98328.19
2023-05-16T12:43:13.007Z,98325.02
2023-05-16T12:44:35.711Z,98322.21
2023-05-16T12:46:00.122Z,98323.86
2023-05-16T12:47:29.473Z,98323.86
2023-05-16T12:48:58.853Z,98320.49
2023-05-16T12:50:20.255Z,98327.91
2023-05-16T12:51:44.045Z,98328.45
2023-05-16T12:53:05.468Z,98316.94
2023-05-16T12:54:27.219Z,98328.44
2023-05-16T12:55:49.379Z,98323.52
2023-05-16T12:57:10.966Z,98331.52
2023-05-16T12:58:35.358Z,98329.88
2023-05-16T12:59:57.136Z,98329.58
2023-05-16T13:01:21.622Z,98335.29
2023-05-16T13:02:46.010Z,98329.72
2023-05-16T13:04:15.208Z,98326.08
2023-05-16T13:05:39.732Z,98322.45
2023-05-16T13:07:11.129Z,98316.94
2023-05-16T13:08:32.933Z,98333.36
2023-05-16T13:09:54.738Z,98331.66
2023-05-16T13:11:16.336Z,98337.11
2023-05-16T13:12:52.228Z,98331.52
2023-05-16T13:14:16.611Z,98332.91
2023-05-16T13:15:38.517Z,98331.27
2023-05-16T13:17:04.862Z,98325.45
2023-05-16T13:18:29.137Z,98334.88
2023-05-16T13:19:53.448Z,98331.06
2023-05-16T13:21:24.985Z,98336.33
2023-05-16T13:22:48.885Z,98334.89
2023-05-16T13:24:22.262Z,98333.80
2023-05-16T13:25:49.078Z,98332.70
2023-05-16T13:27:11.325Z,98332.44
2023-05-16T13:28:36.344Z,98330.28
2023-05-16T13:30:00.368Z,98332.85
2023-05-16T13:31:34.129Z,98335.34
2023-05-16T13:33:03.649Z,98332.59
2023-05-16T13:34:27.550Z,98334.20
2023-05-16T13:35:49.138Z,98331.41
2023-05-16T13:37:18.436Z,98332.92
2023-05-16T13:38:43.185Z,98328.65
2023-05-16T13:40:05.203Z,98329.19
2023-05-16T13:41:30.180Z,98322.36
2023-05-16T13:42:52.206Z,98324.12
2023-05-16T13:44:17.072Z,98326.55
2023-05-16T13:45:50.907Z,98325.55
2023-05-16T13:47:12.557Z,98324.42
2023-05-16T13:48:45.975Z,98327.48
2023-05-16T13:50:10.433Z,98326.34
2023-05-16T13:51:35.092Z,98321.61
2023-05-16T13:53:04.384Z,98315.50
2023-05-16T13:54:33.633Z,98324.23
2023-05-16T13:55:57.976Z,98320.20
2023-05-16T13:57:27.817Z,98318.86
2023-05-16T13:59:01.102Z,98323.00
2023-05-16T14:00:43.329Z,98317.04
2023-05-16T14:02:06.823Z,98308.26
2023-05-16T14:03:33.722Z,98321.38
2023-05-16T14:05:07.364Z,98321.23
2023-05-16T14:06:29.379Z,98323.61
2023-05-16T14:07:53.996Z,98316.84
2023-05-16T14:09:16.869Z,98317.87
2023-05-16T14:10:38.863Z,98317.73
2023-05-16T14:12:13.307Z,98323.58
2023-05-16T14:13:35.482Z,98326.20
2023-05-16T14:15:02.626Z,98325.38
2023-05-16T14:16:39.933Z,98324.75
2023-05-16T14:18:13.429Z,98320.97
2023-05-16T14:19:36.431Z,98325.70
2023-05-16T14:20:58.813Z,98324.65
2023-05-16T14:22:20.035Z,98325.85
2023-05-16T14:23:44.399Z,98330.17
2023-05-16T14:25:08.636Z,98328.76
2023-05-16T14:26:32.425Z,98331.59
2023-05-16T14:27:53.981Z,98325.78
2023-05-16T14:29:15.985Z,98323.40
2023-05-16T14:30:37.825Z,98322.55
2023-05-16T14:32:08.976Z,98326.70
2023-05-16T14:33:33.305Z,98328.64
2023-05-16T14:34:57.316Z,98334.67
2023-05-16T14:36:18.980Z,98332.04
2023-05-16T14:37:48.620Z,98332.73
2023-05-16T14:39:21.675Z,98328.08
2023-05-16T14:40:43.474Z,98328.41
2023-05-16T14:42:08.250Z,98327.15
2023-05-16T14:43:32.940Z,98329.95
2023-05-16T14:44:54.633Z,98327.44
2023-05-16T14:46:18.443Z,98331.42
2023-05-16T14:47:55.090Z,98329.77
2023-05-16T14:49:16.972Z,98327.34
2023-05-16T14:50:38.626Z,98331.05
2023-05-16T14:52:00.540Z,98330.84
2023-05-16T14:53:34.378Z,98329.27
2023-05-16T14:54:56.213Z,98331.09
2023-05-16T14:56:20.336Z,98330.57
2023-05-16T14:57:45.267Z,98331.85
2023-05-16T14:59:09.722Z,98333.84
2023-05-16T15:00:43.171Z,98334.77
2023-05-16T15:02:04.722Z,98333.73
2023-05-16T15:03:33.623Z,98338.23
2023-05-16T15:05:00.137Z,98334.38
2023-05-16T15:06:31.683Z,98338.31
2023-05-16T15:07:58.550Z,98338.86
2023-05-16T15:09:20.690Z,98336.33
2023-05-16T15:10:49.833Z,98342.40
2023-05-16T15:12:33.070Z,98343.27
2023-05-16T15:13:54.612Z,98339.60
2023-05-16T15:15:16.634Z,98339.13
2023-05-16T15:16:50.925Z,98336.25
2023-05-16T15:18:24.061Z,98337.20
2023-05-16T15:19:57.900Z,98335.86
2023-05-16T15:21:22.033Z,98337.13
2023-05-16T15:22:58.274Z,98338.02
2023-05-16T15:24:31.707Z,98331.67
2023-05-16T15:26:05.695Z,98333.23
2023-05-16T15:27:50.955Z,98333.17
2023-05-16T15:29:12.716Z,98330.39
2023-05-16T15:30:46.682Z,98332.13
2023-05-16T15:32:11.254Z,98333.96
2023-05-16T15:33:48.704Z,98335.41
2023-05-16T15:35:12.948Z,98331.70
2023-05-16T15:36:42.459Z,98332.04
2023-05-16T15:38:08.729Z,98327.58
2023-05-16T15:39:32.773Z,98327.95
2023-05-16T15:41:22.459Z,98324.38
2023-05-16T15:42:50.706Z,98323.57
2023-05-16T15:44:19.878Z,98316.91
2023-05-16T15:45:58.858Z,98316.56
2023-05-16T15:47:28.290Z,98319.93
2023-05-16T15:48:52.502Z,98317.98
2023-05-16T15:50:38.313Z,98319.33
2023-05-16T15:52:10.217Z,98320.08
2023-05-16T15:53:51.060Z,98320.58
2023-05-16T15:55:19.872Z,98320.83
2023-05-16T15:56:53.506Z,98316.57
2023-05-16T15:58:15.076Z,98314.22
2023-05-16T15:59:41.614Z,98316.41
2023-05-16T16:01:12.937Z,98316.58
2023-05-16T16:02:56.191Z,98314.19
2023-05-16T16:04:33.245Z,98315.50
2023-05-16T16:06:02.557Z,98318.93
2023-05-16T16:07:43.761Z,98318.26
2023-05-16T16:09:15.432Z,98321.05
2023-05-16T16:10:50.300Z,98320.95
2023-05-16T16:12:32.968Z,98320.34
2023-05-16T16:14:08.493Z,98314.52
2023-05-16T16:15:42.342Z,98315.82
2023-05-16T16:17:19.795Z,98314.98
2023-05-16T16:18:53.333Z,98313.95
2023-05-16T16:20:26.616Z,98315.19
2023-05-16T16:22:00.725Z,98311.80
2023-05-16T16:23:31.756Z,98310.70
2023-05-16T16:24:56.262Z,98310.88
2023-05-16T16:26:29.759Z,98309.13
2023-05-16T16:28:01.282Z,98304.40
2023-05-16T16:29:37.722Z,98303.78
2023-05-16T16:31:22.922Z,98306.48
2023-05-16T16:32:56.542Z,98304.61
2023-05-16T16:34:29.995Z,98308.02
2023-05-16T16:35:59.275Z,98310.02
2023-05-16T16:37:41.660Z,98314.23
2023-05-16T16:39:05.672Z,98315.77
2023-05-16T16:40:50.912Z,98316.60
2023-05-16T16:42:31.334Z,98316.90
2023-05-16T16:43:53.250Z,98315.02
2023-05-16T16:45:29.928Z,98325.13
2023-05-16T16:47:04.392Z,98326.36
2023-05-16T16:48:47.031Z,98326.36
2023-05-16T16:50:22.863Z,98326.75
2023-05-16T16:51:56.233Z,98323.85
2023-05-16T16:53:41.625Z,98326.91
2023-05-16T16:55:22.357Z,98324.73
2023-05-16T16:56:58.476Z,98331.09
2023-05-16T16:58:27.459Z,98332.46
2023-05-16T16:59:49.289Z,98324.46
2023-05-16T17:01:30.061Z,98325.24
2023-05-16T17:03:12.685Z,98327.80
2023-05-16T17:04:48.753Z,98325.63
2023-05-16T17:06:24.730Z,98330.96
2023-05-16T17:07:58.729Z,98329.83
2023-05-16T17:09:43.788Z,98327.80
2023-05-16T17:11:07.710Z,98329.44
2023-05-16T17:12:48.847Z,98333.66
2023-05-16T17:14:12.597Z,98319.63
2023-05-16T17:15:47.194Z,98333.61
2023-05-16T17:17:28.730Z,98323.09
2023-05-16T17:18:53.256Z,98331.14
2023-05-16T17:20:29.039Z,98334.36
2023-05-16T17:22:02.670Z,98332.23
2023-05-16T17:23:26.326Z,98330.27
2023-05-16T17:24:50.581Z,98329.91
2023-05-16T17:26:13.489Z,98329.79
2023-05-16T17:27:49.002Z,98335.26
2023-05-16T17:29:26.796Z,98339.37
2023-05-16T17:31:00.988Z,98339.55
2023-05-16T17:32:41.786Z,98331.77
2023-05-16T17:34:12.787Z,98338.31
2023-05-16T17:35:53.772Z,98341.72
2023-05-16T17:37:23.324Z,98343.89
2023-05-16T17:38:54.454Z,98340.89
2023-05-16T17:40:17.757Z,98342.08
2023-05-16T17:41:47.288Z,98343.59
2023-05-16T17:43:16.005Z,98342.13